Auburn, NJ

5:15 PM EST on January 28, 2015 (GMT -0500)
Chestnut Hill | Change Station
CLOSE
Current Station
Personal Weather Station
Location: Swedesboro, NJ
Elevation: 89 ft
Nearby Weather Stations

Elev 89 ft 39.74 °N, 75.31 °W | Updated 7 seconds ago

Clear
Clear
30.8 °F
Feels Like 31 °F
N
0.0
Wind Variable Wind from NW
Gusts 0.0 mph

Today
High -- | Low -- °F
--% Chance of Precip.
Yesterday
High -- | Low -- °F
Precip. -- in
7:12 AM 5:15 PM
Waxing Gibbous, 68% visible
Pressure 30.19 in
Visibility 10.0 miles
Clouds Clear
Windchill 31 °F
Dew Point 8 °F
Humidity 37%
Rainfall 0.00 in
Snow Depth Not available.
UV 0 out of 12
Pollen .10 out of 12
Air Quality Not available.
Flu Activity Not available.
METAR KPHL 282154Z 31008KT 10SM CLR 01/M17 A3020 RMK AO2 SLP224 T00111172 $

More Conditions Fewer Conditions

Pressure 30.19 in
Visibility 10.0 miles
Clouds Clear
Windchill 31 °F
Dew Point 8 °F
Humidity 37%
Rainfall 0.00 in
Snow Depth Not available.
UV 0 out of 12
Pollen .10 out of 12
Air Quality Not available.
Flu Activity Not available.
METAR KPHL 282154Z 31008KT 10SM CLR 01/M17 A3020 RMK AO2 SLP224 T00111172 $

More Conditions Fewer Conditions

10-Day Weather Forecast

Almanac

Astronomy

Jan. 28, 2015 Rise Set
Actual Time
Civil Twilight
Nautical Twilight
Astronomical Twilight
Moon
Length of Visible Light
Length of Day
Tomorrow will be .
, % of the Moon is Illuminated

Today's Extremes

State Highs State Lows

Community

WunderPhotos

Upload Photos

1,791,276 photos uploaded!

WunderBlogs® & News

Nearby

Air Quality

  Air Quality AQ Index Pollutant
Not available.

Snow Depth

Station Depth Elevation

Earthquake Activity

City Distance Mag. Time & Date
Minimum magnitude displayed is 2.5.

Coastal Water Temperatures

Place Temperature

Nearby Weather Stations